createdAt,value
2023-04-27T00:00:16.010Z,2.00
2023-04-27T00:01:16.291Z,2.40
2023-04-27T00:02:16.088Z,1.90
2023-04-27T00:03:16.425Z,1.70
2023-04-27T00:04:16.167Z,1.60
2023-04-27T00:05:16.240Z,1.80
2023-04-27T00:06:16.015Z,1.60
2023-04-27T00:07:16.063Z,1.70
2023-04-27T00:08:15.923Z,1.80
2023-04-27T00:09:16.222Z,2.00
2023-04-27T00:10:15.912Z,1.90
2023-04-27T00:11:15.869Z,1.80
2023-04-27T00:12:15.886Z,2.30
2023-04-27T00:13:16.123Z,1.60
2023-04-27T00:14:15.854Z,1.80
2023-04-27T00:15:15.843Z,2.00
2023-04-27T00:16:15.877Z,1.70
2023-04-27T00:17:15.814Z,1.50
2023-04-27T00:18:15.793Z,1.70
2023-04-27T00:19:16.039Z,2.20
2023-04-27T00:20:15.775Z,2.30
2023-04-27T00:21:15.772Z,1.60
2023-04-27T00:22:15.837Z,2.20
2023-04-27T00:23:15.754Z,1.80
2023-04-27T00:24:15.748Z,1.70
2023-04-27T00:25:15.725Z,1.70
2023-04-27T00:26:15.722Z,1.80
2023-04-27T00:27:15.701Z,1.90
2023-04-27T00:28:15.690Z,1.70
2023-04-27T00:29:15.926Z,1.80
2023-04-27T00:30:15.675Z,1.80
2023-04-27T00:31:15.699Z,1.90
2023-04-27T00:32:15.724Z,1.40
2023-04-27T00:33:15.722Z,1.80
2023-04-27T00:34:15.616Z,2.00
2023-04-27T00:35:15.637Z,1.60
2023-04-27T00:36:15.604Z,1.90
2023-04-27T00:37:15.598Z,1.90
2023-04-27T00:38:15.564Z,2.20
2023-04-27T00:39:15.864Z,1.80
2023-04-27T00:40:15.549Z,2.10
2023-04-27T00:41:15.560Z,2.20
2023-04-27T00:42:15.566Z,1.90
2023-04-27T00:43:15.523Z,2.10
2023-04-27T00:44:15.513Z,1.70
2023-04-27T00:45:15.719Z,1.60
2023-04-27T00:46:15.520Z,1.70
2023-04-27T00:47:15.481Z,2.60
2023-04-27T00:48:15.463Z,2.00
2023-04-27T00:49:15.503Z,2.20
2023-04-27T00:50:15.445Z,1.70
2023-04-27T00:51:15.441Z,1.80
2023-04-27T00:52:15.428Z,1.70
2023-04-27T00:53:15.417Z,2.20
2023-04-27T00:54:15.392Z,1.50
2023-04-27T00:55:15.398Z,1.70
2023-04-27T00:56:15.372Z,2.00
2023-04-27T00:57:15.367Z,2.00
2023-04-27T00:58:15.364Z,2.20
2023-04-27T00:59:15.521Z,1.80
2023-04-27T01:00:15.318Z,2.00
2023-04-27T01:01:15.364Z,1.70
2023-04-27T01:02:15.376Z,1.50
2023-04-27T01:03:15.449Z,1.60
2023-04-27T01:04:15.598Z,2.50
2023-04-27T01:05:15.287Z,2.10
2023-04-27T01:06:15.258Z,2.40
2023-04-27T01:07:15.260Z,2.00
2023-04-27T01:08:15.260Z,2.00
2023-04-27T01:09:15.430Z,1.80
2023-04-27T01:10:15.305Z,1.80
2023-04-27T01:11:15.236Z,1.70
2023-04-27T01:12:15.204Z,1.50
2023-04-27T01:13:15.231Z,1.60
2023-04-27T01:14:15.164Z,1.60
2023-04-27T01:15:15.166Z,2.00
2023-04-27T01:16:15.165Z,2.00
2023-04-27T01:17:15.153Z,1.70
2023-04-27T01:18:15.131Z,2.10
2023-04-27T01:19:15.349Z,1.90
2023-04-27T01:20:15.108Z,1.90
2023-04-27T01:21:15.092Z,1.80
2023-04-27T01:22:15.114Z,1.90
2023-04-27T01:23:17.107Z,2.00
2023-04-27T01:24:15.067Z,2.00
2023-04-27T01:25:15.052Z,1.90
2023-04-27T01:26:15.051Z,1.70
2023-04-27T01:27:15.039Z,1.80
2023-04-27T01:28:15.168Z,1.60
2023-04-27T01:29:15.154Z,2.00
2023-04-27T01:30:14.980Z,2.00
2023-04-27T01:31:15.382Z,1.70
2023-04-27T01:32:14.966Z,1.70
2023-04-27T01:33:15.155Z,1.90
2023-04-27T01:34:14.940Z,1.90
2023-04-27T01:35:14.931Z,1.90
2023-04-27T01:36:14.931Z,1.80
2023-04-27T01:37:14.942Z,1.70
2023-04-27T01:38:14.915Z,1.70
2023-04-27T01:39:15.165Z,1.60
2023-04-27T01:40:14.881Z,1.90
2023-04-27T01:41:14.883Z,2.20
2023-04-27T01:42:14.851Z,1.80
2023-04-27T01:43:14.849Z,1.70
2023-04-27T01:44:14.866Z,1.70
2023-04-27T01:45:14.842Z,1.80
2023-04-27T01:46:14.872Z,1.70
2023-04-27T01:47:14.810Z,1.80
2023-04-27T01:48:14.789Z,2.00
2023-04-27T01:49:15.221Z,1.90
2023-04-27T01:50:14.781Z,1.90
2023-04-27T01:51:14.878Z,2.10
2023-04-27T01:52:14.738Z,2.00
2023-04-27T01:53:14.749Z,1.60
2023-04-27T01:54:14.716Z,1.70
2023-04-27T01:55:14.706Z,1.50
2023-04-27T01:56:14.706Z,1.60
2023-04-27T01:57:14.684Z,2.30
2023-04-27T01:58:14.693Z,1.60
2023-04-27T01:59:15.101Z,1.80
2023-04-27T02:00:14.801Z,2.00
2023-04-27T02:01:14.717Z,1.80
2023-04-27T02:02:15.233Z,1.80
2023-04-27T02:03:14.744Z,1.50
2023-04-27T02:04:14.906Z,2.00
2023-04-27T02:05:14.637Z,2.30
2023-04-27T02:06:14.614Z,1.80
2023-04-27T02:07:14.578Z,2.70
2023-04-27T02:08:14.570Z,1.80
2023-04-27T02:09:14.750Z,2.10
2023-04-27T02:10:14.610Z,1.80
2023-04-27T02:11:14.554Z,2.40
2023-04-27T02:12:14.533Z,2.10
2023-04-27T02:13:14.554Z,1.80
2023-04-27T02:14:14.516Z,2.10
2023-04-27T02:15:14.613Z,1.70
2023-04-27T02:16:14.509Z,2.00
2023-04-27T02:17:14.481Z,2.00
2023-04-27T02:18:14.469Z,2.00
2023-04-27T02:19:15.031Z,2.10
2023-04-27T02:20:14.439Z,2.10
2023-04-27T02:21:14.555Z,1.70
2023-04-27T02:22:14.418Z,1.80
2023-04-27T02:23:14.412Z,2.10
2023-04-27T02:24:14.511Z,1.90
2023-04-27T02:25:14.402Z,2.40
2023-04-27T02:26:14.357Z,2.20
2023-04-27T02:27:14.389Z,1.80
2023-04-27T02:28:14.355Z,1.50
2023-04-27T02:29:14.524Z,2.00
2023-04-27T02:30:14.343Z,1.80
2023-04-27T02:31:14.358Z,1.50
2023-04-27T02:32:14.307Z,2.50
2023-04-27T02:33:14.284Z,2.40
2023-04-27T02:34:14.281Z,2.10
2023-04-27T02:35:14.275Z,1.90
2023-04-27T02:36:14.248Z,2.00
2023-04-27T02:37:14.268Z,1.90
2023-04-27T02:38:14.249Z,2.10
2023-04-27T02:39:14.392Z,1.90
2023-04-27T02:40:14.229Z,2.20
2023-04-27T02:41:14.302Z,1.80
2023-04-27T02:42:14.196Z,2.30
2023-04-27T02:43:15.054Z,2.00
2023-04-27T02:44:14.158Z,2.40
2023-04-27T02:45:14.171Z,1.80
2023-04-27T02:46:14.213Z,2.30
2023-04-27T02:47:14.128Z,2.20
2023-04-27T02:48:14.125Z,2.20
2023-04-27T02:49:14.320Z,2.20
2023-04-27T02:50:14.109Z,2.20
2023-04-27T02:51:14.360Z,2.40
2023-04-27T02:52:14.063Z,2.10
2023-04-27T02:53:14.093Z,2.60
2023-04-27T02:54:14.052Z,2.00
2023-04-27T02:55:14.030Z,1.60
2023-04-27T02:56:14.021Z,1.90
2023-04-27T02:57:14.090Z,2.40
2023-04-27T02:58:14.004Z,1.80
2023-04-27T02:59:14.297Z,2.00
2023-04-27T03:00:14.054Z,1.90
2023-04-27T03:01:13.995Z,2.80
2023-04-27T03:02:14.020Z,2.20
2023-04-27T03:03:14.034Z,2.00
2023-04-27T03:04:14.092Z,2.10
2023-04-27T03:05:13.940Z,2.50
2023-04-27T03:06:13.902Z,2.50
2023-04-27T03:07:14.108Z,1.70
2023-04-27T03:08:13.887Z,1.80
2023-04-27T03:09:14.114Z,1.70
2023-04-27T03:10:13.888Z,1.60
2023-04-27T03:11:13.866Z,1.80
2023-04-27T03:12:13.853Z,2.40
2023-04-27T03:13:13.836Z,1.90
2023-04-27T03:14:13.850Z,2.30
2023-04-27T03:15:13.809Z,2.00
2023-04-27T03:16:13.853Z,2.00
2023-04-27T03:17:13.820Z,2.00
2023-04-27T03:18:13.781Z,2.00
2023-04-27T03:19:13.986Z,1.80
2023-04-27T03:20:13.774Z,2.40
2023-04-27T03:21:13.757Z,2.20
2023-04-27T03:22:13.729Z,2.30
2023-04-27T03:23:13.716Z,2.30
2023-04-27T03:24:13.728Z,1.70
2023-04-27T03:25:13.732Z,2.20
2023-04-27T03:26:14.198Z,2.20
2023-04-27T03:27:13.674Z,2.60
2023-04-27T03:28:13.669Z,2.40
2023-04-27T03:29:13.881Z,2.20
2023-04-27T03:30:13.636Z,1.60
2023-04-27T03:31:13.639Z,1.60
2023-04-27T03:32:14.024Z,2.00
2023-04-27T03:33:13.684Z,1.90
2023-04-27T03:34:13.620Z,1.50
2023-04-27T03:35:13.580Z,1.90
2023-04-27T03:36:13.946Z,2.30
2023-04-27T03:37:13.579Z,2.00
2023-04-27T03:38:13.664Z,2.40
2023-04-27T03:39:13.948Z,2.00
2023-04-27T03:40:13.541Z,2.10
2023-04-27T03:41:13.620Z,1.90
2023-04-27T03:42:13.520Z,2.60
2023-04-27T03:43:13.490Z,1.90
2023-04-27T03:44:13.486Z,2.10
2023-04-27T03:45:13.486Z,1.70
2023-04-27T03:46:13.920Z,2.10
2023-04-27T03:47:13.457Z,2.20
2023-04-27T03:48:13.448Z,2.10
2023-04-27T03:49:13.715Z,2.50
2023-04-27T03:50:13.425Z,2.50
2023-04-27T03:51:13.544Z,2.70
2023-04-27T03:52:13.505Z,2.40
2023-04-27T03:53:13.380Z,3.10
2023-04-27T03:54:13.368Z,2.50
2023-04-27T03:55:13.373Z,2.50
2023-04-27T03:56:13.369Z,2.40
2023-04-27T03:57:13.369Z,2.10
2023-04-27T03:58:13.318Z,2.60
2023-04-27T03:59:13.574Z,2.90
2023-04-27T04:00:13.344Z,2.30
2023-04-27T04:01:13.345Z,2.40
2023-04-27T04:02:13.331Z,2.70
2023-04-27T04:03:13.594Z,2.90
2023-04-27T04:04:13.439Z,2.70
2023-04-27T04:05:13.441Z,2.20
2023-04-27T04:06:13.249Z,2.20
2023-04-27T04:07:13.328Z,2.50
2023-04-27T04:08:13.231Z,2.40
2023-04-27T04:09:13.454Z,2.80
2023-04-27T04:10:13.185Z,2.20
2023-04-27T04:11:13.197Z,2.50
2023-04-27T04:12:13.166Z,3.20
2023-04-27T04:13:13.198Z,2.70
2023-04-27T04:14:13.149Z,2.40
2023-04-27T04:15:13.136Z,2.40
2023-04-27T04:16:13.165Z,2.60
2023-04-27T04:17:13.110Z,3.00
2023-04-27T04:18:13.123Z,2.20
2023-04-27T04:19:13.323Z,2.10
2023-04-27T04:20:13.100Z,2.20
2023-04-27T04:21:13.084Z,1.80
2023-04-27T04:22:13.072Z,2.40
2023-04-27T04:23:13.061Z,2.00
2023-04-27T04:24:13.032Z,2.00
2023-04-27T04:25:13.166Z,1.90
2023-04-27T04:26:13.478Z,2.50
2023-04-27T04:27:13.106Z,2.80
2023-04-27T04:28:12.987Z,2.20
2023-04-27T04:29:13.157Z,2.50
2023-04-27T04:30:12.976Z,2.10
2023-04-27T04:31:12.958Z,2.20
2023-04-27T04:32:12.940Z,2.00
2023-04-27T04:33:12.957Z,2.50
2023-04-27T04:34:12.971Z,2.30
2023-04-27T04:35:12.934Z,2.50
2023-04-27T04:36:12.912Z,2.20
2023-04-27T04:37:12.887Z,2.10
2023-04-27T04:38:12.893Z,2.60
2023-04-27T04:39:13.051Z,2.40
2023-04-27T04:40:12.891Z,2.80
2023-04-27T04:41:12.852Z,2.20
2023-04-27T04:42:12.831Z,2.40
2023-04-27T04:43:12.836Z,2.20
2023-04-27T04:44:12.806Z,2.50
2023-04-27T04:45:12.976Z,2.30
2023-04-27T04:46:12.908Z,2.20
2023-04-27T04:47:12.782Z,2.20
2023-04-27T04:48:12.780Z,2.80
2023-04-27T04:49:13.058Z,2.20
2023-04-27T04:50:12.739Z,2.30
2023-04-27T04:51:12.732Z,2.60
2023-04-27T04:52:12.733Z,2.80
2023-04-27T04:53:12.718Z,2.30
2023-04-27T04:54:12.692Z,2.60
2023-04-27T04:55:12.702Z,3.00
2023-04-27T04:56:12.689Z,2.50
2023-04-27T04:57:12.697Z,2.20
2023-04-27T04:58:12.668Z,2.70
2023-04-27T04:59:12.936Z,3.00
2023-04-27T05:00:12.653Z,2.10
2023-04-27T05:01:12.699Z,2.30
2023-04-27T05:02:12.618Z,2.20
2023-04-27T05:03:12.765Z,2.40
2023-04-27T05:04:12.831Z,2.20
2023-04-27T05:05:12.608Z,2.40
2023-04-27T05:06:12.581Z,2.30
2023-04-27T05:07:14.498Z,2.50
2023-04-27T05:08:12.555Z,2.40
2023-04-27T05:09:12.710Z,2.50
2023-04-27T05:10:12.558Z,2.30
2023-04-27T05:11:12.512Z,2.20
2023-04-27T05:12:12.511Z,2.20
2023-04-27T05:13:12.488Z,2.50
2023-04-27T05:14:12.515Z,2.10
2023-04-27T05:15:12.482Z,2.20
2023-04-27T05:16:12.523Z,3.00
2023-04-27T05:17:12.488Z,2.10
2023-04-27T05:18:12.438Z,1.80
2023-04-27T05:19:12.700Z,2.10
2023-04-27T05:20:12.425Z,2.10
2023-04-27T05:21:12.397Z,2.90
2023-04-27T05:22:12.403Z,3.00
2023-04-27T05:23:12.395Z,3.20
2023-04-27T05:24:12.361Z,2.50
2023-04-27T05:25:12.342Z,2.80
2023-04-27T05:26:12.381Z,2.50
2023-04-27T05:27:12.344Z,2.50
2023-04-27T05:28:12.347Z,3.00
2023-04-27T05:29:12.529Z,2.80
2023-04-27T05:30:12.301Z,2.80
2023-04-27T05:31:12.383Z,2.70
2023-04-27T05:32:12.303Z,2.90
2023-04-27T05:33:12.334Z,3.40
2023-04-27T05:34:12.248Z,3.00
2023-04-27T05:35:12.262Z,3.10
2023-04-27T05:36:12.257Z,2.60
2023-04-27T05:37:12.246Z,2.60
2023-04-27T05:38:12.227Z,3.10
2023-04-27T05:39:12.461Z,3.10
2023-04-27T05:40:12.230Z,2.60
2023-04-27T05:41:12.202Z,3.00
2023-04-27T05:42:12.177Z,3.10
2023-04-27T05:43:12.217Z,3.10
2023-04-27T05:44:12.157Z,3.20
2023-04-27T05:45:12.183Z,3.20
2023-04-27T05:46:12.227Z,4.00
2023-04-27T05:47:12.170Z,3.30
2023-04-27T05:48:12.205Z,3.30
2023-04-27T05:49:12.354Z,2.70
2023-04-27T05:50:12.114Z,3.00
2023-04-27T05:51:12.077Z,3.10
2023-04-27T05:52:12.106Z,3.80
2023-04-27T05:53:12.058Z,3.10
2023-04-27T05:54:12.087Z,3.10
2023-04-27T05:55:12.082Z,3.40
2023-04-27T05:56:12.146Z,3.60
2023-04-27T05:57:12.016Z,3.50
2023-04-27T05:58:12.191Z,2.70
2023-04-27T05:59:12.370Z,3.10
2023-04-27T06:00:12.149Z,3.00
2023-04-27T06:01:11.984Z,3.00
2023-04-27T06:02:12.045Z,3.10
2023-04-27T06:03:12.127Z,3.10
2023-04-27T06:04:12.024Z,3.20
2023-04-27T06:05:12.046Z,3.20
2023-04-27T06:06:11.911Z,3.60
2023-04-27T06:07:11.895Z,3.70
2023-04-27T06:08:11.868Z,3.10
2023-04-27T06:09:12.050Z,3.30
2023-04-27T06:10:11.906Z,2.90
2023-04-27T06:11:12.131Z,3.30
2023-04-27T06:12:11.866Z,3.30
2023-04-27T06:13:11.833Z,3.70
2023-04-27T06:14:11.848Z,3.70
2023-04-27T06:15:11.909Z,3.10
2023-04-27T06:16:11.825Z,3.80
2023-04-27T06:17:11.783Z,2.40
2023-04-27T06:18:11.871Z,3.20
2023-04-27T06:19:11.927Z,3.40
2023-04-27T06:20:11.762Z,3.30
2023-04-27T06:21:11.759Z,3.50
2023-04-27T06:22:11.712Z,2.40
2023-04-27T06:23:11.792Z,2.50
2023-04-27T06:24:11.733Z,2.70
2023-04-27T06:25:11.815Z,3.90
2023-04-27T06:26:11.796Z,4.00
2023-04-27T06:27:11.651Z,4.20
2023-04-27T06:28:11.687Z,3.60
2023-04-27T06:29:11.766Z,2.50
2023-04-27T06:30:11.669Z,2.50
2023-04-27T06:31:11.640Z,2.50
2023-04-27T06:32:11.726Z,2.90
2023-04-27T06:33:11.686Z,3.30
2023-04-27T06:34:11.757Z,4.30
2023-04-27T06:35:11.593Z,3.90
2023-04-27T06:36:11.656Z,3.00
2023-04-27T06:37:11.610Z,2.60
2023-04-27T06:38:11.570Z,3.00
2023-04-27T06:39:11.838Z,3.70
2023-04-27T06:40:11.659Z,4.30
2023-04-27T06:41:11.525Z,4.10
2023-04-27T06:42:11.558Z,4.00
2023-04-27T06:43:11.508Z,3.60
2023-04-27T06:44:11.473Z,2.50
2023-04-27T06:45:12.354Z,2.90
2023-04-27T06:46:11.518Z,3.60
2023-04-27T06:47:11.476Z,3.90
2023-04-27T06:48:11.496Z,3.90
2023-04-27T06:49:11.689Z,4.00
2023-04-27T06:50:11.480Z,4.20
2023-04-27T06:51:11.385Z,3.80
2023-04-27T06:52:11.460Z,4.00
2023-04-27T06:53:12.135Z,4.20
2023-04-27T06:54:11.608Z,1.80
2023-04-27T06:55:11.345Z,3.30
2023-04-27T06:56:12.126Z,3.10
2023-04-27T06:57:11.401Z,2.90
2023-04-27T06:58:11.353Z,3.70
2023-04-27T06:59:11.475Z,4.80
2023-04-27T07:00:11.299Z,3.80
2023-04-27T07:01:11.385Z,3.90
2023-04-27T07:02:11.302Z,4.00
2023-04-27T07:03:11.588Z,4.10
2023-04-27T07:04:11.796Z,2.90
2023-04-27T07:05:11.239Z,3.40
2023-04-27T07:06:11.275Z,3.30
2023-04-27T07:07:11.273Z,3.90
2023-04-27T07:08:11.238Z,4.00
2023-04-27T07:09:26.023Z,3.40
2023-04-27T07:10:12.869Z,4.30
2023-04-27T07:11:11.218Z,3.50
2023-04-27T07:12:11.171Z,2.70
2023-04-27T07:13:12.450Z,3.20
2023-04-27T07:14:11.155Z,3.80
2023-04-27T07:15:11.188Z,4.10
2023-04-27T07:16:11.191Z,3.90
2023-04-27T07:17:11.137Z,3.60
2023-04-27T07:18:11.162Z,3.70
2023-04-27T07:19:11.179Z,4.00
2023-04-27T07:20:11.079Z,3.60
2023-04-27T07:21:11.107Z,3.40
2023-04-27T07:22:11.103Z,4.00
2023-04-27T07:23:11.239Z,4.10
2023-04-27T07:24:11.202Z,3.20
2023-04-27T07:25:11.619Z,2.90
2023-04-27T07:26:11.027Z,3.60
2023-04-27T07:27:11.065Z,3.30
2023-04-27T07:28:11.007Z,3.70
2023-04-27T07:29:25.691Z,4.10
2023-04-27T07:30:11.950Z,3.40
2023-04-27T07:31:11.017Z,3.80
2023-04-27T07:32:11.077Z,3.70
2023-04-27T07:33:11.013Z,3.80
2023-04-27T07:34:10.922Z,3.40
2023-04-27T07:35:10.940Z,3.50
2023-04-27T07:36:11.019Z,2.70
2023-04-27T07:37:10.990Z,3.60
2023-04-27T07:38:10.862Z,3.80
2023-04-27T07:39:10.943Z,4.10
2023-04-27T07:40:11.023Z,3.90
2023-04-27T07:41:10.983Z,3.80
2023-04-27T07:42:10.977Z,4.00
2023-04-27T07:43:10.801Z,3.50
2023-04-27T07:44:10.804Z,3.30
2023-04-27T07:45:10.823Z,4.10
2023-04-27T07:46:10.888Z,3.20
2023-04-27T07:47:11.126Z,3.90
2023-04-27T07:48:10.786Z,4.20
2023-04-27T07:49:11.266Z,3.70
2023-04-27T07:50:10.782Z,3.90
2023-04-27T07:51:25.612Z,3.90
2023-04-27T07:52:10.769Z,4.00
2023-04-27T07:53:10.708Z,3.70
2023-04-27T07:54:10.708Z,4.10
2023-04-27T07:55:10.704Z,4.30
2023-04-27T07:56:10.691Z,4.00
2023-04-27T07:57:10.693Z,3.80
2023-04-27T07:58:10.635Z,3.80
2023-04-27T07:59:10.868Z,3.90
2023-04-27T08:00:10.690Z,3.90
2023-04-27T08:01:10.641Z,4.10
2023-04-27T08:02:19.811Z,3.30
2023-04-27T08:03:11.773Z,3.50
2023-04-27T08:04:10.855Z,4.20
2023-04-27T08:05:11.484Z,4.30
2023-04-27T08:06:11.158Z,3.70
2023-04-27T08:07:10.801Z,3.70
2023-04-27T08:08:10.541Z,4.10
2023-04-27T08:09:10.581Z,4.00
2023-04-27T08:10:10.523Z,3.40
2023-04-27T08:11:10.537Z,4.20
2023-04-27T08:12:10.588Z,3.90
2023-04-27T08:13:10.550Z,3.80
2023-04-27T08:14:10.507Z,3.90
2023-04-27T08:15:10.484Z,3.30
2023-04-27T08:16:10.556Z,3.60
2023-04-27T08:17:10.555Z,3.70
2023-04-27T08:18:10.609Z,3.70
2023-04-27T08:19:11.302Z,3.10
2023-04-27T08:20:10.411Z,4.10
2023-04-27T08:21:11.120Z,3.50
2023-04-27T08:22:13.117Z,3.50
2023-04-27T08:23:10.416Z,3.70
2023-04-27T08:24:10.374Z,4.20
2023-04-27T08:25:10.390Z,3.70
2023-04-27T08:26:10.359Z,3.60
2023-04-27T08:27:10.384Z,4.10
2023-04-27T08:28:10.361Z,3.40
2023-04-27T08:29:19.955Z,3.80
2023-04-27T08:30:11.308Z,3.70
2023-04-27T08:31:10.336Z,3.70
2023-04-27T08:32:10.264Z,3.90
2023-04-27T08:33:10.315Z,3.80
2023-04-27T08:34:10.262Z,3.40
2023-04-27T08:35:10.274Z,3.90
2023-04-27T08:36:10.337Z,3.60
2023-04-27T08:37:10.259Z,4.50
2023-04-27T08:38:10.341Z,3.60
2023-04-27T08:39:10.269Z,3.60
2023-04-27T08:40:10.304Z,3.80
2023-04-27T08:41:20.799Z,3.30
2023-04-27T08:42:11.145Z,3.90
2023-04-27T08:43:10.343Z,3.60
2023-04-27T08:44:10.174Z,3.60
2023-04-27T08:45:10.153Z,3.40
2023-04-27T08:46:10.181Z,3.90
2023-04-27T08:47:10.118Z,4.20
2023-04-27T08:48:10.150Z,3.90
2023-04-27T08:49:10.135Z,3.60
2023-04-27T08:50:10.147Z,3.70
2023-04-27T08:51:10.055Z,3.90
2023-04-27T08:52:10.089Z,3.50
2023-04-27T08:53:10.062Z,4.00
2023-04-27T08:54:10.636Z,3.90
2023-04-27T08:55:10.022Z,4.10
2023-04-27T08:56:10.033Z,3.70
2023-04-27T08:57:10.045Z,3.50
2023-04-27T08:58:10.025Z,3.80
2023-04-27T08:59:09.977Z,3.50
2023-04-27T09:00:09.979Z,4.00
2023-04-27T09:01:10.070Z,4.00
2023-04-27T09:02:10.067Z,3.40
2023-04-27T09:03:10.070Z,3.70
2023-04-27T09:04:10.173Z,3.80
2023-04-27T09:05:10.094Z,3.60
2023-04-27T09:06:09.966Z,3.70
2023-04-27T09:07:09.908Z,4.30
2023-04-27T09:08:09.883Z,4.10
2023-04-27T09:09:09.875Z,3.70
2023-04-27T09:10:09.879Z,4.00
2023-04-27T09:11:09.856Z,3.20
2023-04-27T09:12:09.825Z,4.00
2023-04-27T09:13:09.818Z,3.30
2023-04-27T09:14:10.110Z,4.50
2023-04-27T09:15:09.799Z,3.80
2023-04-27T09:16:09.979Z,4.30
2023-04-27T09:17:09.815Z,3.70
2023-04-27T09:18:09.759Z,4.30
2023-04-27T09:19:09.751Z,4.30
2023-04-27T09:20:09.763Z,3.60
2023-04-27T09:21:09.735Z,4.10
2023-04-27T09:22:09.725Z,4.00
2023-04-27T09:23:09.727Z,4.10
2023-04-27T09:24:09.699Z,3.60
2023-04-27T09:25:09.695Z,4.50
2023-04-27T09:26:09.682Z,4.00
2023-04-27T09:27:09.710Z,3.80
2023-04-27T09:28:09.644Z,4.10
2023-04-27T09:29:09.679Z,4.50
2023-04-27T09:30:09.665Z,3.90
2023-04-27T09:31:09.776Z,4.20
2023-04-27T09:32:09.615Z,3.90
2023-04-27T09:33:09.624Z,3.90
2023-04-27T09:34:09.615Z,3.20
2023-04-27T09:35:09.595Z,3.70
2023-04-27T09:36:09.597Z,3.60
2023-04-27T09:37:09.565Z,3.40
2023-04-27T09:38:09.595Z,3.70
2023-04-27T09:39:09.656Z,3.90
2023-04-27T09:40:09.555Z,3.70
2023-04-27T09:41:09.536Z,3.40
2023-04-27T09:42:09.521Z,4.20
2023-04-27T09:43:09.568Z,3.50
2023-04-27T09:44:09.498Z,4.10
2023-04-27T09:45:09.468Z,3.60
2023-04-27T09:46:09.493Z,3.40
2023-04-27T09:47:09.442Z,4.10
2023-04-27T09:48:09.461Z,3.30
2023-04-27T09:49:09.524Z,3.40
2023-04-27T09:50:09.447Z,3.50
2023-04-27T09:51:09.436Z,3.60
2023-04-27T09:52:10.178Z,3.50
2023-04-27T09:53:09.407Z,3.50
2023-04-27T09:54:10.161Z,4.00
2023-04-27T09:55:09.397Z,3.50
2023-04-27T09:56:09.354Z,3.80
2023-04-27T09:57:09.320Z,3.20
2023-04-27T09:58:09.303Z,3.80
2023-04-27T09:59:09.349Z,3.70
2023-04-27T10:00:09.680Z,4.10
2023-04-27T10:01:09.306Z,3.90
2023-04-27T10:02:23.676Z,4.10
2023-04-27T10:03:10.307Z,3.60
2023-04-27T10:04:09.381Z,3.60
2023-04-27T10:05:09.418Z,3.70
2023-04-27T10:06:09.249Z,3.80
2023-04-27T10:07:09.254Z,3.90
2023-04-27T10:08:09.216Z,3.30
2023-04-27T10:09:09.188Z,3.30
2023-04-27T10:10:09.196Z,3.40
2023-04-27T10:11:10.137Z,3.20
2023-04-27T10:12:09.154Z,3.10
2023-04-27T10:13:09.171Z,3.20
2023-04-27T10:14:09.150Z,3.80
2023-04-27T10:15:09.639Z,3.50
2023-04-27T10:16:09.112Z,3.50
2023-04-27T10:17:09.146Z,3.20
2023-04-27T10:18:09.472Z,3.50
2023-04-27T10:19:09.318Z,3.00
2023-04-27T10:20:09.130Z,3.10
2023-04-27T10:21:09.300Z,2.90
2023-04-27T10:22:09.027Z,3.40
2023-04-27T10:23:09.042Z,2.70
2023-04-27T10:24:09.075Z,3.50
2023-04-27T10:25:09.041Z,3.20
2023-04-27T10:26:08.989Z,3.70
2023-04-27T10:27:09.171Z,3.20
2023-04-27T10:28:09.100Z,2.80
2023-04-27T10:29:09.001Z,3.50
2023-04-27T10:30:08.974Z,3.00
2023-04-27T10:31:09.078Z,3.00
2023-04-27T10:32:09.022Z,2.90
2023-04-27T10:33:10.522Z,3.30
2023-04-27T10:34:08.993Z,3.20
2023-04-27T10:35:08.963Z,3.50
2023-04-27T10:36:08.931Z,3.80
2023-04-27T10:37:08.916Z,3.10
2023-04-27T10:38:08.916Z,3.60
2023-04-27T10:39:08.885Z,3.00
2023-04-27T10:40:08.884Z,3.20
2023-04-27T10:41:08.866Z,3.30
2023-04-27T10:42:08.821Z,3.50
2023-04-27T10:43:08.858Z,3.30
2023-04-27T10:44:08.813Z,3.30
2023-04-27T10:45:09.194Z,3.00
2023-04-27T10:46:08.829Z,3.10
2023-04-27T10:47:08.986Z,3.60
2023-04-27T10:48:08.842Z,3.30
2023-04-27T10:49:08.764Z,3.10
2023-04-27T10:50:08.727Z,3.50
2023-04-27T10:51:08.734Z,3.50
2023-04-27T10:52:08.717Z,3.50
2023-04-27T10:53:08.799Z,3.60
2023-04-27T10:54:08.722Z,3.20
2023-04-27T10:55:08.672Z,3.20
2023-04-27T10:56:08.679Z,3.10
2023-04-27T10:57:08.679Z,3.70
2023-04-27T10:58:08.642Z,3.20
2023-04-27T10:59:08.656Z,3.40
2023-04-27T11:00:08.621Z,3.80
2023-04-27T11:01:08.698Z,3.40
2023-04-27T11:02:08.835Z,3.60
2023-04-27T11:03:08.738Z,3.70
2023-04-27T11:04:08.721Z,3.60
2023-04-27T11:05:08.773Z,3.20
2023-04-27T11:06:08.597Z,3.00
2023-04-27T11:07:08.618Z,3.10
2023-04-27T11:08:08.750Z,3.90
2023-04-27T11:09:08.545Z,3.30
2023-04-27T11:10:08.539Z,3.50
2023-04-27T11:11:08.510Z,3.10
2023-04-27T11:12:08.720Z,4.00
2023-04-27T11:13:08.567Z,3.50
2023-04-27T11:14:08.505Z,3.30
2023-04-27T11:15:08.483Z,2.90
2023-04-27T11:16:08.482Z,2.90
2023-04-27T11:17:08.463Z,3.50
2023-04-27T11:18:08.431Z,3.30
2023-04-27T11:19:09.331Z,3.50
2023-04-27T11:20:08.742Z,3.40
2023-04-27T11:21:08.387Z,3.40
2023-04-27T11:22:08.415Z,2.90
2023-04-27T11:23:08.387Z,3.20
2023-04-27T11:24:08.346Z,3.00
2023-04-27T11:25:08.389Z,2.70
2023-04-27T11:26:09.136Z,3.00
2023-04-27T11:27:08.309Z,2.90
2023-04-27T11:28:08.302Z,3.10
2023-04-27T11:29:08.286Z,2.80
2023-04-27T11:30:08.281Z,3.30
2023-04-27T11:31:08.368Z,3.10
2023-04-27T11:32:08.299Z,2.50
2023-04-27T11:33:08.314Z,2.90
2023-04-27T11:34:08.257Z,3.00
2023-04-27T11:35:08.238Z,2.80
2023-04-27T11:36:08.209Z,3.20
2023-04-27T11:37:17.157Z,2.90
2023-04-27T11:38:09.184Z,3.20
2023-04-27T11:39:08.193Z,2.90
2023-04-27T11:40:08.167Z,3.00
2023-04-27T11:41:08.171Z,3.40
2023-04-27T11:42:08.161Z,2.70
2023-04-27T11:43:08.168Z,2.80
2023-04-27T11:44:08.138Z,3.40
2023-04-27T11:45:08.129Z,2.90
2023-04-27T11:46:08.142Z,3.10
2023-04-27T11:47:08.118Z,2.80
2023-04-27T11:48:08.213Z,2.60
2023-04-27T11:49:08.082Z,3.20
2023-04-27T11:50:08.112Z,3.00
2023-04-27T11:51:08.047Z,3.10
2023-04-27T11:52:08.047Z,2.30
2023-04-27T11:53:08.034Z,2.60
2023-04-27T11:54:08.156Z,2.10
2023-04-27T11:55:07.994Z,2.40
2023-04-27T11:56:08.000Z,2.80
2023-04-27T11:57:08.014Z,2.40
2023-04-27T11:58:07.989Z,3.00
2023-04-27T11:59:07.964Z,3.10
2023-04-27T12:00:07.933Z,3.10
2023-04-27T12:01:07.938Z,2.70
2023-04-27T12:02:07.974Z,2.90
2023-04-27T12:03:08.181Z,2.80
2023-04-27T12:04:08.123Z,2.10
2023-04-27T12:05:08.161Z,1.80
2023-04-27T12:06:27.526Z,2.00
2023-04-27T12:07:08.857Z,2.10
2023-04-27T12:08:07.892Z,1.90
2023-04-27T12:09:07.848Z,2.30
2023-04-27T12:10:07.982Z,2.30
2023-04-27T12:11:07.835Z,2.10
2023-04-27T12:12:07.844Z,1.80
2023-04-27T12:13:07.841Z,2.30
2023-04-27T12:14:07.785Z,1.70
2023-04-27T12:15:07.781Z,1.90
2023-04-27T12:16:07.838Z,2.20
2023-04-27T12:17:07.819Z,2.00
2023-04-27T12:18:07.796Z,1.90
2023-04-27T12:19:07.732Z,2.00
2023-04-27T12:20:07.717Z,2.10
2023-04-27T12:21:08.412Z,2.30
2023-04-27T12:22:07.728Z,2.10
2023-04-27T12:23:07.686Z,2.10
2023-04-27T12:24:07.694Z,2.10
2023-04-27T12:25:07.687Z,1.90
2023-04-27T12:26:07.656Z,1.90
2023-04-27T12:27:07.671Z,1.40
2023-04-27T12:28:07.645Z,2.00
2023-04-27T12:29:07.667Z,1.70
2023-04-27T12:30:07.639Z,1.80
2023-04-27T12:31:07.629Z,1.70
2023-04-27T12:32:07.664Z,1.70
2023-04-27T12:33:07.597Z,1.80
2023-04-27T12:34:07.575Z,2.10
2023-04-27T12:35:07.568Z,1.70
2023-04-27T12:36:07.546Z,2.30
2023-04-27T12:37:07.551Z,2.10
2023-04-27T12:38:07.512Z,2.00
2023-04-27T12:39:07.511Z,2.50
2023-04-27T12:40:07.492Z,1.80
2023-04-27T12:41:07.536Z,1.70
2023-04-27T12:42:07.489Z,1.90
2023-04-27T12:43:07.476Z,1.60
2023-04-27T12:44:07.450Z,1.90
2023-04-27T12:45:07.478Z,2.10
2023-04-27T12:46:07.523Z,1.70
2023-04-27T12:47:07.565Z,1.70
2023-04-27T12:48:07.465Z,2.20
2023-04-27T12:49:07.401Z,1.60
2023-04-27T12:50:07.431Z,1.70
2023-04-27T12:51:07.390Z,1.50
2023-04-27T12:52:07.365Z,1.60
2023-04-27T12:53:07.367Z,1.60
2023-04-27T12:54:07.339Z,2.00
2023-04-27T12:55:12.885Z,1.70
2023-04-27T12:56:08.358Z,1.50
2023-04-27T12:57:07.304Z,1.90
2023-04-27T12:58:07.300Z,1.60
2023-04-27T12:59:07.359Z,1.70
2023-04-27T13:00:07.308Z,1.80
2023-04-27T13:01:07.333Z,1.90
2023-04-27T13:02:07.285Z,1.80
2023-04-27T13:03:07.392Z,1.40
2023-04-27T13:04:07.457Z,1.40
2023-04-27T13:05:07.324Z,1.20
2023-04-27T13:06:07.209Z,1.50
2023-04-27T13:07:07.244Z,1.50
2023-04-27T13:08:07.188Z,1.70
2023-04-27T13:09:07.155Z,1.70
2023-04-27T13:10:07.170Z,1.20
2023-04-27T13:11:07.157Z,1.10
2023-04-27T13:12:07.146Z,1.60
2023-04-27T13:13:07.215Z,1.40
2023-04-27T13:14:07.096Z,1.80
2023-04-27T13:15:07.117Z,1.40
2023-04-27T13:16:07.149Z,1.40
2023-04-27T13:17:07.105Z,1.70
2023-04-27T13:18:07.135Z,1.60